createdAt,value
2018-05-24T00:02:41.668Z,40.67
2018-05-24T00:04:33.074Z,40.47
2018-05-24T00:05:05.170Z,40.77
2018-05-24T00:05:37.262Z,40.67
2018-05-24T00:06:09.357Z,40.47
2018-05-24T00:06:41.456Z,40.77
2018-05-24T00:07:13.560Z,40.96
2018-05-24T00:09:05.075Z,40.77
2018-05-24T00:09:37.153Z,40.86
2018-05-24T00:10:09.237Z,40.57
2018-05-24T00:10:41.326Z,40.96
2018-05-24T00:12:32.655Z,40.86
2018-05-24T00:13:04.762Z,40.86
2018-05-24T00:13:36.827Z,40.86
2018-05-24T00:14:08.931Z,40.57
2018-05-24T00:14:41.023Z,40.77
2018-05-24T00:16:32.670Z,40.86
2018-05-24T00:17:04.768Z,40.86
2018-05-24T00:18:56.179Z,41.05
2018-05-24T00:19:28.271Z,40.67
2018-05-24T00:20:00.356Z,40.96
2018-05-24T00:20:32.441Z,40.67
2018-05-24T00:21:04.546Z,40.67
2018-05-24T00:21:36.599Z,40.86
2018-05-24T00:23:28.161Z,40.67
2018-05-24T00:24:00.253Z,40.86
2018-05-24T00:24:32.338Z,40.96
2018-05-24T00:25:04.426Z,40.96
2018-05-24T00:25:36.493Z,40.67
2018-05-24T00:26:08.570Z,40.86
2018-05-24T00:26:40.677Z,40.96
2018-05-24T00:27:12.766Z,40.86
2018-05-24T00:27:44.860Z,40.96
2018-05-24T00:28:16.937Z,40.67
2018-05-24T00:28:49.044Z,40.86
2018-05-24T00:29:21.131Z,40.96
2018-05-24T00:29:53.213Z,40.77
2018-05-24T00:30:25.310Z,40.77
2018-05-24T00:30:57.400Z,40.77
2018-05-24T00:32:48.841Z,41.05
2018-05-24T00:33:20.933Z,40.96
2018-05-24T00:33:53.026Z,40.94
2018-05-24T00:34:25.127Z,40.96
2018-05-24T00:34:57.222Z,40.86
2018-05-24T00:36:48.760Z,41.13
2018-05-24T00:37:20.851Z,40.86
2018-05-24T00:37:52.956Z,40.77
2018-05-24T00:38:25.057Z,40.96
2018-05-24T00:38:57.151Z,40.75
2018-05-24T00:40:48.761Z,40.94
2018-05-24T00:41:20.866Z,40.75
2018-05-24T00:41:52.958Z,40.75
2018-05-24T00:42:25.060Z,40.75
2018-05-24T00:42:57.150Z,40.84
2018-05-24T00:43:29.240Z,40.75
2018-05-24T00:44:01.335Z,40.94
2018-05-24T00:44:33.425Z,40.84
2018-05-24T00:45:05.515Z,40.94
2018-05-24T00:45:37.608Z,40.75
2018-05-24T00:46:09.703Z,40.84
2018-05-24T00:48:01.339Z,41.13
2018-05-24T00:48:33.416Z,40.75
2018-05-24T00:50:24.839Z,40.75
2018-05-24T00:50:56.934Z,40.75
2018-05-24T00:51:29.032Z,40.94
2018-05-24T00:52:01.117Z,40.75
2018-05-24T00:52:33.185Z,40.75
2018-05-24T00:54:24.765Z,40.84
2018-05-24T00:54:56.851Z,40.94
2018-05-24T00:55:28.935Z,40.75
2018-05-24T00:56:01.038Z,40.84
2018-05-24T00:56:33.146Z,40.84
2018-05-24T00:58:24.780Z,40.94
2018-05-24T00:58:56.868Z,40.94
2018-05-24T00:59:28.940Z,40.84
2018-05-24T01:00:01.036Z,40.94
2018-05-24T01:00:33.128Z,40.65
2018-05-24T01:01:05.229Z,40.65
2018-05-24T01:01:37.313Z,40.94
2018-05-24T01:02:09.404Z,40.75
2018-05-24T01:02:41.494Z,40.84
2018-05-24T01:03:13.569Z,40.75
2018-05-24T01:03:45.630Z,40.65
2018-05-24T01:04:17.730Z,40.55
2018-05-24T01:04:49.828Z,40.94
2018-05-24T01:05:21.892Z,40.84
2018-05-24T01:05:54.011Z,40.94
2018-05-24T01:07:45.575Z,40.84
2018-05-24T01:08:17.657Z,40.75
2018-05-24T01:08:49.752Z,40.65
2018-05-24T01:09:21.861Z,40.75
2018-05-24T01:09:53.948Z,41.03
2018-05-24T01:10:26.034Z,40.84
2018-05-24T01:10:58.121Z,41.03
2018-05-24T01:11:30.293Z,40.94
2018-05-24T01:12:02.308Z,40.75
2018-05-24T01:12:34.390Z,40.65
2018-05-24T01:14:25.777Z,40.84
2018-05-24T01:14:57.888Z,41.03
2018-05-24T01:15:29.983Z,40.75
2018-05-24T01:16:02.096Z,40.75
2018-05-24T01:17:53.530Z,40.84
2018-05-24T01:18:25.610Z,40.75
2018-05-24T01:20:17.360Z,40.94
2018-05-24T01:20:49.445Z,40.75
2018-05-24T01:21:21.543Z,40.94
2018-05-24T01:21:53.644Z,40.75
2018-05-24T01:22:25.735Z,40.84
2018-05-24T01:22:57.848Z,40.75
2018-05-24T01:23:29.947Z,40.84
2018-05-24T01:24:02.040Z,40.84
2018-05-24T01:24:34.123Z,40.94
2018-05-24T01:25:06.197Z,40.94
2018-05-24T01:25:38.280Z,40.84
2018-05-24T01:26:10.362Z,40.84
2018-05-24T01:26:42.447Z,41.03
2018-05-24T01:27:14.539Z,41.03
2018-05-24T01:27:46.623Z,40.94
2018-05-24T01:28:18.713Z,40.92
2018-05-24T01:28:50.806Z,40.94
2018-05-24T01:29:22.867Z,40.82
2018-05-24T01:29:54.944Z,41.02
2018-05-24T01:30:27.021Z,40.84
2018-05-24T01:30:59.113Z,40.84
2018-05-24T01:31:31.191Z,40.92
2018-05-24T01:32:03.245Z,40.92
2018-05-24T01:32:35.336Z,40.84
2018-05-24T01:33:07.444Z,40.82
2018-05-24T01:33:39.530Z,40.92
2018-05-24T01:34:11.614Z,40.92
2018-05-24T01:34:43.706Z,40.92
2018-05-24T01:35:15.783Z,40.92
2018-05-24T01:35:47.889Z,40.84
2018-05-24T01:36:19.960Z,40.92
2018-05-24T01:36:52.072Z,40.92
2018-05-24T01:37:24.155Z,40.92
2018-05-24T01:37:56.218Z,40.92
2018-05-24T01:39:47.877Z,40.92
2018-05-24T01:40:19.957Z,40.92
2018-05-24T01:40:52.042Z,40.92
2018-05-24T01:41:24.115Z,41.11
2018-05-24T01:41:56.204Z,40.75
2018-05-24T01:42:28.319Z,40.92
2018-05-24T01:43:00.408Z,41.02
2018-05-24T01:43:32.493Z,40.92
2018-05-24T01:44:04.607Z,40.92
2018-05-24T01:44:36.705Z,40.82
2018-05-24T01:45:08.801Z,41.13
2018-05-24T01:45:40.898Z,40.72
2018-05-24T01:46:12.987Z,41.02
2018-05-24T01:48:04.287Z,40.82
2018-05-24T01:48:36.366Z,40.82
2018-05-24T01:49:08.450Z,40.92
2018-05-24T01:49:40.544Z,40.92
2018-05-24T01:50:12.612Z,40.92
2018-05-24T01:52:04.039Z,40.92
2018-05-24T01:53:55.380Z,41.02
2018-05-24T01:55:46.726Z,40.82
2018-05-24T01:56:18.813Z,40.92
2018-05-24T01:56:50.914Z,41.02
2018-05-24T01:58:42.639Z,40.92
2018-05-24T01:59:14.730Z,40.82
2018-05-24T01:59:46.824Z,40.82
2018-05-24T02:00:18.980Z,41.2
2018-05-24T02:00:50.995Z,40.82
2018-05-24T02:01:23.074Z,40.82
2018-05-24T02:01:55.164Z,40.92
2018-05-24T02:02:27.229Z,40.82
2018-05-24T02:02:59.328Z,40.82
2018-05-24T02:03:31.430Z,41.02
2018-05-24T02:05:23.145Z,41.3
2018-05-24T02:05:55.227Z,40.82
2018-05-24T02:06:27.347Z,40.92
2018-05-24T02:06:59.428Z,40.82
2018-05-24T02:07:31.533Z,40.92
2018-05-24T02:08:03.637Z,40.92
2018-05-24T02:08:35.713Z,41.02
2018-05-24T02:09:07.802Z,40.92
2018-05-24T02:09:39.892Z,41.02
2018-05-24T02:10:11.983Z,41.02
2018-05-24T02:10:44.077Z,40.92
2018-05-24T02:11:16.160Z,41.02
2018-05-24T02:11:48.260Z,40.92
2018-05-24T02:12:20.368Z,40.92
2018-05-24T02:14:12.153Z,41.11
2018-05-24T02:16:03.818Z,40.82
2018-05-24T02:16:35.921Z,41.3
2018-05-24T02:17:08.007Z,41.2
2018-05-24T02:17:40.104Z,40.63
2018-05-24T02:18:12.203Z,40.82
2018-05-24T02:18:44.280Z,40.92
2018-05-24T02:19:16.375Z,40.82
2018-05-24T02:19:48.460Z,41.3
2018-05-24T02:20:20.546Z,40.72
2018-05-24T02:20:52.652Z,40.92
2018-05-24T02:21:24.723Z,40.82
2018-05-24T02:23:16.314Z,40.92
2018-05-24T02:23:48.403Z,40.92
2018-05-24T02:24:20.480Z,40.72
2018-05-24T02:24:52.551Z,40.92
2018-05-24T02:25:24.652Z,41.11
2018-05-24T02:25:56.739Z,41.02
2018-05-24T02:26:28.823Z,41.02
2018-05-24T02:27:00.907Z,41.02
2018-05-24T02:28:52.399Z,40.92
2018-05-24T02:29:24.468Z,40.72
2018-05-24T02:29:56.548Z,41.4
2018-05-24T02:30:28.638Z,40.82
2018-05-24T02:31:00.752Z,41.02
2018-05-24T02:31:32.821Z,41.02
2018-05-24T02:33:24.323Z,41.02
2018-05-24T02:33:56.428Z,40.92
2018-05-24T02:34:28.529Z,41.2
2018-05-24T02:37:39.903Z,41.4
2018-05-24T02:38:12.000Z,40.7
2018-05-24T02:40:03.587Z,41.28
2018-05-24T02:40:35.707Z,41.11
2018-05-24T02:41:07.774Z,41.28
2018-05-24T02:41:39.871Z,41.11
2018-05-24T02:42:11.958Z,41.2
2018-05-24T02:42:44.041Z,41.19
2018-05-24T02:43:16.122Z,41.11
2018-05-24T02:43:48.194Z,40.9
2018-05-24T02:44:20.290Z,41.19
2018-05-24T02:44:52.370Z,40.92
2018-05-24T02:45:24.465Z,41.3
2018-05-24T02:47:15.910Z,40.92
2018-05-24T02:47:47.988Z,41.19
2018-05-24T02:48:20.080Z,40.92
2018-05-24T02:48:52.157Z,41.09
2018-05-24T02:49:24.241Z,41.09
2018-05-24T02:49:56.334Z,41.28
2018-05-24T02:50:28.412Z,40.9
2018-05-24T02:51:00.497Z,41.28
2018-05-24T02:52:52.174Z,41.09
2018-05-24T02:54:43.837Z,41.19
2018-05-24T02:55:15.944Z,41.28
2018-05-24T02:55:48.027Z,41.19
2018-05-24T02:56:20.205Z,41.09
2018-05-24T02:56:52.210Z,41.09
2018-05-24T02:57:24.284Z,40.99
2018-05-24T02:57:56.376Z,40.99
2018-05-24T02:58:28.489Z,40.99
2018-05-24T02:59:00.539Z,41.09
2018-05-24T02:59:32.637Z,40.99
2018-05-24T03:01:24.076Z,41.09
2018-05-24T03:01:56.163Z,41.28
2018-05-24T03:02:28.234Z,40.99
2018-05-24T03:04:19.680Z,41.09
2018-05-24T03:04:51.767Z,41.09
2018-05-24T03:05:23.839Z,40.99
2018-05-24T03:05:55.949Z,41.09
2018-05-24T03:06:28.021Z,41.38
2018-05-24T03:07:00.119Z,40.99
2018-05-24T03:07:32.226Z,40.99
2018-05-24T03:08:04.296Z,40.99
2018-05-24T03:08:36.396Z,41.19
2018-05-24T03:09:08.517Z,40.99
2018-05-24T03:09:40.608Z,41.09
2018-05-24T03:11:32.088Z,40.99
2018-05-24T03:12:04.181Z,41.38
2018-05-24T03:12:36.285Z,40.99
2018-05-24T03:13:08.381Z,41.09
2018-05-24T03:13:40.490Z,41.09
2018-05-24T03:14:12.584Z,41.38
2018-05-24T03:14:44.671Z,40.99
2018-05-24T03:16:36.093Z,40.99
2018-05-24T03:17:08.201Z,41.38
2018-05-24T03:17:40.295Z,40.99
2018-05-24T03:18:12.384Z,40.9
2018-05-24T03:18:44.490Z,40.99
2018-05-24T03:19:16.588Z,41.38
2018-05-24T03:19:48.699Z,41.09
2018-05-24T03:20:20.778Z,40.99
2018-05-24T03:20:52.858Z,40.99
2018-05-24T03:22:44.192Z,40.9
2018-05-24T03:23:16.290Z,40.99
2018-05-24T03:23:48.373Z,41.19
2018-05-24T03:24:20.463Z,41.09
2018-05-24T03:24:52.552Z,40.9
2018-05-24T03:25:24.670Z,40.9
2018-05-24T03:25:56.748Z,41.48
2018-05-24T03:26:28.837Z,40.9
2018-05-24T03:27:00.946Z,40.9
2018-05-24T03:27:32.997Z,40.99
2018-05-24T03:28:05.046Z,41.09
2018-05-24T03:28:37.146Z,40.9
2018-05-24T03:29:09.247Z,40.9
2018-05-24T03:29:41.339Z,41.09
2018-05-24T03:30:13.443Z,40.9
2018-05-24T03:30:45.553Z,40.99
2018-05-24T03:31:17.641Z,40.9
2018-05-24T03:31:49.721Z,41.09
2018-05-24T03:32:21.819Z,40.99
2018-05-24T03:32:53.907Z,40.99
2018-05-24T03:33:25.993Z,41.09
2018-05-24T03:35:17.688Z,41.48
2018-05-24T03:35:49.749Z,40.99
2018-05-24T03:36:21.847Z,40.9
2018-05-24T03:36:53.942Z,40.99
2018-05-24T03:37:26.043Z,40.99
2018-05-24T03:37:58.116Z,41.48
2018-05-24T03:38:30.207Z,40.99
2018-05-24T03:39:02.289Z,41.48
2018-05-24T03:39:34.383Z,40.9
2018-05-24T03:41:25.863Z,41.48
2018-05-24T03:43:17.290Z,41.09
2018-05-24T03:43:49.370Z,40.8
2018-05-24T03:44:21.464Z,40.9
2018-05-24T03:44:53.560Z,40.9
2018-05-24T03:45:25.661Z,40.9
2018-05-24T03:45:57.711Z,41.09
2018-05-24T03:46:29.815Z,41.09
2018-05-24T03:47:01.899Z,40.8
2018-05-24T03:47:33.960Z,40.99
2018-05-24T03:48:06.022Z,40.9
2018-05-24T03:48:38.131Z,40.9
2018-05-24T03:49:10.196Z,40.9
2018-05-24T03:51:01.794Z,40.99
2018-05-24T03:51:33.896Z,40.9
2018-05-24T03:52:06.042Z,40.9
2018-05-24T03:52:38.056Z,40.8
2018-05-24T03:53:10.154Z,40.9
2018-05-24T03:53:42.240Z,40.9
2018-05-24T03:54:14.330Z,40.9
2018-05-24T03:54:46.414Z,40.9
2018-05-24T03:55:18.528Z,40.9
2018-05-24T03:55:50.638Z,40.9
2018-05-24T03:56:22.756Z,40.8
2018-05-24T03:58:14.113Z,40.9
2018-05-24T03:58:46.205Z,41.48
2018-05-24T03:59:18.291Z,41.48
2018-05-24T03:59:50.360Z,40.9
2018-05-24T04:00:22.453Z,41.38
2018-05-24T04:00:54.538Z,40.9
2018-05-24T04:01:26.642Z,40.99
2018-05-24T04:01:58.739Z,41.48
2018-05-24T04:02:30.821Z,40.99
2018-05-24T04:03:02.904Z,40.9
2018-05-24T04:03:35.012Z,41.48
2018-05-24T04:04:07.987Z,40.99
2018-05-24T04:04:40.076Z,40.9
2018-05-24T04:05:12.175Z,40.99
2018-05-24T04:07:03.782Z,40.99
2018-05-24T04:07:35.798Z,40.99
2018-05-24T04:08:07.872Z,40.9
2018-05-24T04:08:39.966Z,40.99
2018-05-24T04:09:12.045Z,40.99
2018-05-24T04:09:44.130Z,41.38
2018-05-24T04:10:16.223Z,40.9
2018-05-24T04:10:48.290Z,40.9
2018-05-24T04:11:20.375Z,40.99
2018-05-24T04:11:52.543Z,41.57
2018-05-24T04:12:24.553Z,40.9
2018-05-24T04:14:15.876Z,40.9
2018-05-24T04:14:47.936Z,41.48
2018-05-24T04:15:20.036Z,40.9
2018-05-24T04:15:52.123Z,40.99
2018-05-24T04:16:24.208Z,40.99
2018-05-24T04:16:56.299Z,40.9
2018-05-24T04:17:28.400Z,40.99
2018-05-24T04:18:00.508Z,40.99
2018-05-24T04:18:32.606Z,40.99
2018-05-24T04:19:04.708Z,40.9
2018-05-24T04:20:56.376Z,41.09
2018-05-24T04:21:28.459Z,40.9
2018-05-24T04:23:20.307Z,40.9
2018-05-24T04:23:52.294Z,40.9
2018-05-24T04:24:24.397Z,40.9
2018-05-24T04:24:56.481Z,41.48
2018-05-24T04:26:47.885Z,40.99
2018-05-24T04:27:19.991Z,40.99
2018-05-24T04:27:52.091Z,41.09
2018-05-24T04:29:43.463Z,40.99
2018-05-24T04:30:15.551Z,40.9
2018-05-24T04:30:47.620Z,40.9
2018-05-24T04:31:19.714Z,40.99
2018-05-24T04:31:51.819Z,41.09
2018-05-24T04:32:23.908Z,41.09
2018-05-24T04:32:56.030Z,40.99
2018-05-24T04:33:28.103Z,40.99
2018-05-24T04:35:19.467Z,41.09
2018-05-24T04:35:51.566Z,41.38
2018-05-24T04:36:23.642Z,41.09
2018-05-24T04:36:55.748Z,40.99
2018-05-24T04:38:47.385Z,40.99
2018-05-24T04:39:19.478Z,40.99
2018-05-24T04:39:51.568Z,41.09
2018-05-24T04:41:43.223Z,40.99
2018-05-24T04:43:34.641Z,40.99
2018-05-24T04:44:06.717Z,41.09
2018-05-24T04:44:38.801Z,40.99
2018-05-24T04:46:30.145Z,41.09
2018-05-24T04:47:02.231Z,41.09
2018-05-24T04:47:34.321Z,41.28
2018-05-24T04:48:06.419Z,40.9
2018-05-24T04:48:38.523Z,40.9
2018-05-24T04:49:10.611Z,40.9
2018-05-24T04:49:42.694Z,40.9
2018-05-24T04:50:14.795Z,41.09
2018-05-24T04:52:06.270Z,40.99
2018-05-24T04:52:38.310Z,40.9
2018-05-24T04:53:10.393Z,40.9
2018-05-24T04:55:01.820Z,41.02
2018-05-24T04:55:33.900Z,40.8
2018-05-24T04:56:05.982Z,40.9
2018-05-24T04:56:38.062Z,40.8
2018-05-24T04:58:29.644Z,40.9
2018-05-24T04:59:01.750Z,41.02
2018-05-24T04:59:33.857Z,40.92
2018-05-24T05:00:05.954Z,40.92
2018-05-24T05:00:38.040Z,40.82
2018-05-24T05:02:29.403Z,40.82
2018-05-24T05:03:01.503Z,40.92
2018-05-24T05:03:33.608Z,40.82
2018-05-24T05:05:25.144Z,41.2
2018-05-24T05:05:57.251Z,40.92
2018-05-24T05:06:29.442Z,40.82
2018-05-24T05:07:01.542Z,40.82
2018-05-24T05:07:33.633Z,40.72
2018-05-24T05:08:05.730Z,40.72
2018-05-24T05:08:37.829Z,40.82
2018-05-24T05:09:09.913Z,40.92
2018-05-24T05:11:01.488Z,41.02
2018-05-24T05:11:33.582Z,40.82
2018-05-24T05:12:05.680Z,40.82
2018-05-24T05:12:37.789Z,41.02
2018-05-24T05:13:09.860Z,41.02
2018-05-24T05:13:41.949Z,40.92
2018-05-24T05:14:14.041Z,40.82
2018-05-24T05:14:46.221Z,40.92
2018-05-24T05:15:18.231Z,40.92
2018-05-24T05:15:50.311Z,40.92
2018-05-24T05:16:22.394Z,40.92
2018-05-24T05:16:54.481Z,40.92
2018-05-24T05:17:26.564Z,41.02
2018-05-24T05:17:58.652Z,40.92
2018-05-24T05:18:30.729Z,40.92
2018-05-24T05:19:02.817Z,40.72
2018-05-24T05:19:34.947Z,40.92
2018-05-24T05:21:26.411Z,40.92
2018-05-24T05:21:58.771Z,40.82
2018-05-24T05:22:31.552Z,40.72
2018-05-24T05:23:03.721Z,40.82
2018-05-24T05:23:35.742Z,40.92
2018-05-24T05:24:07.834Z,40.92
2018-05-24T05:24:39.933Z,41.11
2018-05-24T05:25:12.085Z,41.02
2018-05-24T05:27:03.494Z,40.53
2018-05-24T05:27:35.599Z,40.82
2018-05-24T05:28:10.251Z,40.63
2018-05-24T05:28:42.360Z,40.53
2018-05-24T05:30:33.891Z,40.82
2018-05-24T05:31:06.030Z,40.63
2018-05-24T05:31:38.119Z,40.82
2018-05-24T05:32:10.189Z,40.63
2018-05-24T05:32:42.278Z,40.65
2018-05-24T05:33:14.409Z,40.63
2018-05-24T05:33:46.543Z,40.75
2018-05-24T05:34:18.753Z,40.75
2018-05-24T05:34:50.924Z,40.65
2018-05-24T05:36:42.691Z,40.55
2018-05-24T05:37:14.900Z,40.94
2018-05-24T05:37:47.088Z,40.94
2018-05-24T05:38:19.346Z,40.75
2018-05-24T05:38:51.394Z,40.84
2018-05-24T05:39:24.296Z,40.75
2018-05-24T05:39:56.366Z,40.75
2018-05-24T05:40:28.439Z,40.94
2018-05-24T05:41:00.541Z,41.03
2018-05-24T05:41:32.626Z,40.65
2018-05-24T05:42:04.716Z,40.65
2018-05-24T05:42:36.822Z,40.65
2018-05-24T05:43:08.929Z,41.03
2018-05-24T05:43:41.020Z,40.65
2018-05-24T05:44:13.103Z,40.65
2018-05-24T05:44:45.280Z,40.94
2018-05-24T05:45:17.595Z,40.65
2018-05-24T05:45:49.683Z,40.75
2018-05-24T05:46:21.790Z,40.94
2018-05-24T05:46:53.876Z,40.65
2018-05-24T05:47:25.968Z,40.84
2018-05-24T05:47:58.052Z,40.65
2018-05-24T05:48:30.151Z,40.65
2018-05-24T05:49:02.287Z,40.75
2018-05-24T05:49:34.575Z,40.75
2018-05-24T05:50:06.854Z,40.75
2018-05-24T05:50:39.126Z,40.65
2018-05-24T05:52:30.766Z,40.65
2018-05-24T05:53:02.898Z,40.57
2018-05-24T05:54:54.364Z,40.38
2018-05-24T05:55:26.438Z,40.38
2018-05-24T05:55:58.511Z,40.38
2018-05-24T05:56:30.583Z,40.38
2018-05-24T05:57:02.690Z,40.28
2018-05-24T05:57:34.772Z,40.28
2018-05-24T05:58:06.897Z,40.28
2018-05-24T05:58:38.993Z,40.57
2018-05-24T05:59:11.098Z,40.38
2018-05-24T05:59:43.234Z,40.28
2018-05-24T06:00:15.560Z,40.19
2018-05-24T06:00:47.658Z,40.28
2018-05-24T06:01:19.732Z,40.38
2018-05-24T06:03:11.018Z,40.38
2018-05-24T06:03:43.065Z,40.86
2018-05-24T06:04:15.165Z,40.5
2018-05-24T06:04:47.270Z,40.4
2018-05-24T06:05:19.373Z,40.4
2018-05-24T06:05:51.477Z,40.69
2018-05-24T06:06:23.582Z,40.59
2018-05-24T06:06:55.675Z,40.11
2018-05-24T06:07:28.879Z,40.78
2018-05-24T06:09:24.557Z,39.92
2018-05-24T06:09:57.127Z,39.92
2018-05-24T06:10:29.627Z,40.01
2018-05-24T06:11:02.335Z,39.92
2018-05-24T06:11:35.436Z,39.92
2018-05-24T06:12:08.602Z,40.3
2018-05-24T06:12:41.050Z,40.01
2018-05-24T06:13:13.628Z,40.4
2018-05-24T06:13:48.404Z,40.2
2018-05-24T06:14:24.004Z,40.3
2018-05-24T06:14:59.586Z,40.4
2018-05-24T06:15:35.772Z,40.3
2018-05-24T06:17:27.955Z,40.3
2018-05-24T06:18:01.199Z,40.23
2018-05-24T06:19:54.653Z,40.23
2018-05-24T06:20:28.509Z,40.23
2018-05-24T06:22:21.892Z,40.13
2018-05-24T06:22:54.782Z,40.32
2018-05-24T06:23:27.700Z,40.23
2018-05-24T06:24:00.365Z,40.32
2018-05-24T06:25:52.545Z,40.23
2018-05-24T06:26:26.648Z,39.94
2018-05-24T06:27:00.552Z,40.03
2018-05-24T06:27:34.446Z,39.94
2018-05-24T06:28:07.396Z,39.95
2018-05-24T06:28:39.693Z,40.05
2018-05-24T06:30:32.432Z,40.03
2018-05-24T06:31:05.079Z,40.34
2018-05-24T06:31:37.567Z,39.95
2018-05-24T06:32:10.905Z,40.25
2018-05-24T06:32:43.807Z,39.95
2018-05-24T06:33:18.794Z,40.15
2018-05-24T06:33:51.536Z,40.25
2018-05-24T06:34:23.980Z,40.25
2018-05-24T06:34:56.221Z,40.34
2018-05-24T06:35:28.317Z,40.25
2018-05-24T06:36:00.473Z,40.34
2018-05-24T06:36:32.582Z,40.44
2018-05-24T06:37:04.675Z,39.86
2018-05-24T06:38:56.291Z,40.05
2018-05-24T06:39:28.429Z,40.07
2018-05-24T06:40:00.704Z,40.05
2018-05-24T06:40:32.775Z,40.34
2018-05-24T06:41:04.864Z,39.88
2018-05-24T06:42:56.668Z,39.76
2018-05-24T06:43:29.012Z,39.97
2018-05-24T06:44:01.107Z,39.88
2018-05-24T06:44:33.202Z,39.78
2018-05-24T06:45:05.286Z,39.78
2018-05-24T06:45:38.430Z,39.97
2018-05-24T06:46:11.342Z,39.78
2018-05-24T06:46:43.568Z,39.88
2018-05-24T06:47:15.663Z,39.88
2018-05-24T06:47:47.750Z,39.97
2018-05-24T06:48:19.859Z,39.78
2018-05-24T06:48:51.951Z,39.78
2018-05-24T06:49:24.036Z,39.69
2018-05-24T06:49:56.137Z,39.88
2018-05-24T06:51:47.469Z,40
2018-05-24T06:52:19.636Z,40.09
2018-05-24T06:52:53.746Z,39.97
2018-05-24T06:53:25.852Z,39.8
2018-05-24T06:53:57.927Z,39.9
2018-05-24T06:54:30.009Z,39.8
2018-05-24T06:55:02.122Z,39.41
2018-05-24T06:55:34.206Z,39.41
2018-05-24T06:56:06.304Z,39.8
2018-05-24T06:56:38.434Z,39.8
2018-05-24T06:57:10.579Z,39.8
2018-05-24T06:57:42.722Z,39.51
2018-05-24T06:58:14.840Z,39.7
2018-05-24T06:58:46.948Z,39.61
2018-05-24T06:59:19.006Z,39.32
2018-05-24T06:59:51.193Z,39.32
2018-05-24T07:00:23.211Z,39.32
2018-05-24T07:02:14.722Z,39.43
2018-05-24T07:02:46.844Z,39.72
2018-05-24T07:04:39.020Z,39.62
2018-05-24T07:05:11.902Z,39.53
2018-05-24T07:05:46.346Z,39.53
2018-05-24T07:06:22.915Z,39.53
2018-05-24T07:06:56.909Z,39.53
2018-05-24T07:08:49.865Z,39.43
2018-05-24T07:09:23.695Z,39.53
2018-05-24T07:09:58.238Z,39.53
2018-05-24T07:10:31.524Z,39.53
2018-05-24T07:11:03.629Z,39.62
2018-05-24T07:11:35.625Z,39.53
2018-05-24T07:12:07.720Z,39.53
2018-05-24T07:12:39.825Z,39.43
2018-05-24T07:13:11.926Z,39.53
2018-05-24T07:13:44.032Z,39.43
2018-05-24T07:14:16.102Z,39.53
2018-05-24T07:14:48.174Z,39.53
2018-05-24T07:15:20.211Z,39.53
2018-05-24T07:15:52.297Z,39.34
2018-05-24T07:16:24.390Z,39.43
2018-05-24T07:18:15.746Z,39.36
2018-05-24T07:18:47.841Z,39.65
2018-05-24T07:19:19.931Z,39.45
2018-05-24T07:21:11.490Z,39.24
2018-05-24T07:21:43.571Z,39.53
2018-05-24T07:22:15.675Z,39.43
2018-05-24T07:22:47.754Z,39.53
2018-05-24T07:24:39.249Z,39.53
2018-05-24T07:26:30.753Z,39.53
2018-05-24T07:27:02.837Z,39.53
2018-05-24T07:27:34.907Z,39.62
2018-05-24T07:28:06.996Z,39.53
2018-05-24T07:28:39.081Z,39.53
2018-05-24T07:29:11.172Z,39.43
2018-05-24T07:31:02.909Z,39.53
2018-05-24T07:32:54.422Z,39.34
2018-05-24T07:33:26.524Z,40.01
2018-05-24T07:33:58.616Z,39.62
2018-05-24T07:35:50.334Z,39.62
2018-05-24T07:36:22.388Z,39.53
2018-05-24T07:36:54.484Z,39.62
2018-05-24T07:38:46.241Z,39.53
2018-05-24T07:39:18.338Z,39.55
2018-05-24T07:41:10.079Z,39.53
2018-05-24T07:41:42.174Z,39.53
2018-05-24T07:42:14.234Z,39.72
2018-05-24T07:42:46.323Z,39.34
2018-05-24T07:43:18.415Z,39.34
2018-05-24T07:43:50.531Z,39.45
2018-05-24T07:45:41.922Z,39.72
2018-05-24T07:47:33.514Z,39.34
2018-05-24T07:49:24.831Z,39.43
2018-05-24T07:49:56.912Z,39.62
2018-05-24T07:51:48.569Z,39.43
2018-05-24T07:52:20.675Z,39.84
2018-05-24T07:52:52.773Z,39.74
2018-05-24T07:53:24.856Z,39.45
2018-05-24T07:53:56.974Z,39.55
2018-05-24T07:54:29.068Z,39.65
2018-05-24T07:55:01.165Z,39.84
2018-05-24T07:55:33.250Z,39.34
2018-05-24T07:56:05.353Z,39.26
2018-05-24T07:56:37.453Z,39.26
2018-05-24T07:57:09.537Z,39.36
2018-05-24T07:57:41.647Z,39.36
2018-05-24T07:58:13.754Z,39.65
2018-05-24T07:58:45.845Z,39.74
2018-05-24T07:59:17.957Z,39.36
2018-05-24T07:59:50.048Z,39.65
2018-05-24T08:00:22.162Z,39.65
2018-05-24T08:02:13.829Z,39.65
2018-05-24T08:04:05.436Z,39.36
2018-05-24T08:04:37.511Z,39.84
2018-05-24T08:05:10.204Z,39.36
2018-05-24T08:05:42.408Z,39.36
2018-05-24T08:06:14.499Z,39.74
2018-05-24T08:06:46.596Z,39.74
2018-05-24T08:07:18.965Z,39.65
2018-05-24T08:07:51.819Z,39.65
2018-05-24T08:08:25.237Z,39.36
2018-05-24T08:08:57.281Z,39.45
2018-05-24T08:09:29.382Z,39.74
2018-05-24T08:10:01.458Z,39.34
2018-05-24T08:10:33.630Z,39.36
2018-05-24T08:11:05.707Z,39.84
2018-05-24T08:11:37.819Z,39.26
2018-05-24T08:12:09.927Z,39.45
2018-05-24T08:12:42.012Z,39.34
2018-05-24T08:13:14.109Z,39.55
2018-05-24T08:13:46.213Z,39.74
2018-05-24T08:15:37.928Z,39.74
2018-05-24T08:17:29.603Z,39.26
2018-05-24T08:19:20.967Z,39.55
2018-05-24T08:19:53.094Z,39.55
2018-05-24T08:20:25.234Z,39.84
2018-05-24T08:20:57.348Z,39.55
2018-05-24T08:21:29.419Z,39.55
2018-05-24T08:22:03.012Z,39.55
2018-05-24T08:22:39.800Z,39.55
2018-05-24T08:23:12.219Z,39.65
2018-05-24T08:23:44.331Z,39.47
2018-05-24T08:24:16.582Z,39.67
2018-05-24T08:24:49.006Z,39.57
2018-05-24T08:25:21.092Z,39.67
2018-05-24T08:25:53.199Z,39.57
2018-05-24T08:26:25.293Z,39.57
2018-05-24T08:26:57.387Z,39.67
2018-05-24T08:27:29.492Z,39.67
2018-05-24T08:28:01.567Z,39.47
2018-05-24T08:28:33.642Z,39.37
2018-05-24T08:29:05.802Z,39.57
2018-05-24T08:29:37.859Z,39.28
2018-05-24T08:30:09.958Z,39.86
2018-05-24T08:30:42.068Z,39.86
2018-05-24T08:32:33.442Z,39.95
2018-05-24T08:33:05.939Z,39.57
2018-05-24T08:33:40.958Z,39.67
2018-05-24T08:34:15.851Z,39.67
2018-05-24T08:34:50.095Z,39.47
2018-05-24T08:36:44.493Z,39.67
2018-05-24T08:37:18.648Z,39.57
2018-05-24T08:37:54.903Z,39.67
2018-05-24T08:38:28.647Z,39.69
2018-05-24T08:39:01.326Z,39.67
2018-05-24T08:39:33.429Z,39.57
2018-05-24T08:40:05.535Z,39.28
2018-05-24T08:40:37.682Z,39.57
2018-05-24T08:41:09.695Z,39.57
2018-05-24T08:41:41.864Z,39.57
2018-05-24T08:42:13.865Z,39.57
2018-05-24T08:42:46.032Z,39.59
2018-05-24T08:44:37.375Z,39.49
2018-05-24T08:45:09.480Z,39.49
2018-05-24T08:47:00.978Z,39.59
2018-05-24T08:47:33.052Z,39.49
2018-05-24T08:48:05.133Z,39.49
2018-05-24T08:49:56.620Z,39.49
2018-05-24T08:50:28.740Z,39.59
2018-05-24T08:51:00.780Z,39.57
2018-05-24T08:51:33.064Z,39.49
2018-05-24T08:52:06.296Z,39.59
2018-05-24T08:53:58.030Z,39.69
2018-05-24T08:55:49.622Z,39.69
2018-05-24T08:56:23.525Z,39.59
2018-05-24T08:58:15.632Z,39.69
2018-05-24T08:58:47.702Z,39.69
2018-05-24T08:59:19.782Z,39.59
2018-05-24T08:59:51.851Z,39.69
2018-05-24T09:01:43.408Z,39.39
2018-05-24T09:04:54.134Z,39.59
2018-05-24T09:05:26.239Z,39.69
2018-05-24T09:05:58.344Z,39.59
2018-05-24T09:07:50.137Z,39.69
2018-05-24T09:08:22.224Z,39.61
2018-05-24T09:08:55.321Z,39.7
2018-05-24T09:09:27.422Z,39.7
2018-05-24T09:09:59.525Z,39.61
2018-05-24T09:10:31.803Z,39.61
2018-05-24T09:11:03.891Z,39.32
2018-05-24T09:11:35.967Z,39.51
2018-05-24T09:12:08.051Z,39.32
2018-05-24T09:12:40.536Z,39.32
2018-05-24T09:13:14.891Z,39.51
2018-05-24T09:15:10.601Z,39.61
2018-05-24T09:15:45.762Z,39.32
2018-05-24T09:16:22.293Z,39.22
2018-05-24T09:16:57.047Z,39.61
2018-05-24T09:18:51.729Z,39.43
2018-05-24T09:19:25.900Z,39.43
2018-05-24T09:22:38.403Z,39.53
2018-05-24T09:23:12.457Z,39.34
2018-05-24T09:23:45.995Z,39.43
2018-05-24T09:24:20.188Z,39.34
2018-05-24T09:24:55.218Z,39.43
2018-05-24T09:26:49.873Z,39.24
2018-05-24T09:27:24.450Z,39.53
2018-05-24T09:27:59.172Z,39.34
2018-05-24T09:28:35.832Z,39.45
2018-05-24T09:29:10.617Z,39.45
2018-05-24T09:29:50.378Z,39.55
2018-05-24T09:30:30.114Z,39.26
2018-05-24T09:32:23.747Z,39.45
2018-05-24T09:32:58.302Z,39.45
2018-05-24T09:33:32.061Z,39.36
2018-05-24T09:35:25.995Z,39.26
2018-05-24T09:37:18.584Z,39.45
2018-05-24T09:37:50.708Z,39.45